createdAt,value
2019-02-15T00:00:46.514Z,14.00
2019-02-15T00:03:18.219Z,18.07
2019-02-15T00:05:49.851Z,15.87
2019-02-15T00:08:21.398Z,16.60
2019-02-15T00:10:52.945Z,15.73
2019-02-15T00:13:24.496Z,15.77
2019-02-15T00:15:56.093Z,16.37
2019-02-15T00:18:35.262Z,16.17
2019-02-15T00:21:20.504Z,14.03
2019-02-15T00:23:52.060Z,14.13
2019-02-15T00:26:23.597Z,14.73
2019-02-15T00:28:55.189Z,15.57
2019-02-15T00:31:26.731Z,16.50
2019-02-15T00:33:58.307Z,17.00
2019-02-15T00:36:29.966Z,16.47
2019-02-15T00:39:01.607Z,16.93
2019-02-15T00:41:34.366Z,18.27
2019-02-15T00:44:05.869Z,15.60
2019-02-15T00:46:39.047Z,15.10
2019-02-15T00:49:13.120Z,16.73
2019-02-15T00:51:48.925Z,17.53
2019-02-15T00:54:27.928Z,16.63
2019-02-15T00:57:01.114Z,16.60
2019-02-15T00:59:34.271Z,16.50
2019-02-15T01:02:10.511Z,17.37
2019-02-15T01:04:49.640Z,17.30
2019-02-15T01:07:25.750Z,16.37
2019-02-15T01:10:01.871Z,17.80
2019-02-15T01:12:35.037Z,16.70
2019-02-15T01:15:06.641Z,18.13
2019-02-15T01:17:38.901Z,19.33
2019-02-15T01:20:10.597Z,20.50
2019-02-15T01:22:42.104Z,19.37
2019-02-15T01:25:13.752Z,17.50
2019-02-15T01:27:49.983Z,19.13
2019-02-15T01:30:29.189Z,18.83
2019-02-15T01:33:02.478Z,20.10
2019-02-15T01:35:35.636Z,20.67
2019-02-15T01:38:25.295Z,19.33
2019-02-15T01:40:58.487Z,18.37
2019-02-15T01:43:46.720Z,19.73
2019-02-15T01:46:19.891Z,19.00
2019-02-15T01:48:51.409Z,19.27
2019-02-15T01:51:23.096Z,18.80
2019-02-15T01:53:54.704Z,20.70
2019-02-15T01:56:26.247Z,21.73
2019-02-15T01:58:57.855Z,18.87
2019-02-15T02:01:30.327Z,19.53
2019-02-15T02:04:01.894Z,21.13
2019-02-15T02:06:33.538Z,20.23
2019-02-15T02:09:05.747Z,22.00
2019-02-15T02:11:37.625Z,21.00
2019-02-15T02:14:09.203Z,18.50
2019-02-15T02:16:40.875Z,20.83
2019-02-15T02:19:12.435Z,19.30
2019-02-15T02:21:44.023Z,19.33
2019-02-15T02:24:15.623Z,18.83
2019-02-15T02:26:47.159Z,20.73
2019-02-15T02:29:18.687Z,18.77
2019-02-15T02:31:50.274Z,20.60
2019-02-15T02:34:21.813Z,18.37
2019-02-15T02:36:55.261Z,21.73
2019-02-15T02:39:26.831Z,20.93
2019-02-15T02:41:58.505Z,17.23
2019-02-15T02:44:30.528Z,20.57
2019-02-15T02:47:02.095Z,18.70
2019-02-15T02:49:34.695Z,21.57
2019-02-15T02:52:06.233Z,21.07
2019-02-15T02:54:37.834Z,20.73
2019-02-15T02:57:09.418Z,22.73
2019-02-15T02:59:41.067Z,21.07
2019-02-15T03:02:13.725Z,19.77
2019-02-15T03:04:45.260Z,20.33
2019-02-15T03:07:16.849Z,19.07
2019-02-15T03:09:48.383Z,19.27
2019-02-15T03:12:19.894Z,20.80
2019-02-15T03:14:51.562Z,19.37
2019-02-15T03:17:23.118Z,18.93
2019-02-15T03:19:54.647Z,21.13
2019-02-15T03:22:26.221Z,19.43
2019-02-15T03:24:57.792Z,21.23
2019-02-15T03:27:29.426Z,19.93
2019-02-15T03:30:00.954Z,20.77
2019-02-15T03:32:32.628Z,19.33
2019-02-15T03:35:07.965Z,21.30
2019-02-15T03:37:46.897Z,19.00
2019-02-15T03:40:20.079Z,20.93
2019-02-15T03:42:51.671Z,19.07
2019-02-15T03:45:23.197Z,18.57
2019-02-15T03:47:54.800Z,18.10
2019-02-15T03:50:27.398Z,17.90
2019-02-15T03:52:59.197Z,19.87
2019-02-15T03:55:30.776Z,19.53
2019-02-15T03:58:02.419Z,16.13
2019-02-15T04:00:33.944Z,18.40
2019-02-15T04:03:05.651Z,15.77
2019-02-15T04:05:37.179Z,18.80
2019-02-15T04:08:08.820Z,17.47
2019-02-15T04:10:40.392Z,17.60
2019-02-15T04:13:12.049Z,15.10
2019-02-15T04:15:43.671Z,18.67
2019-02-15T04:18:15.282Z,19.47
2019-02-15T04:20:46.860Z,17.93
2019-02-15T04:23:18.481Z,17.47
2019-02-15T04:25:50.004Z,18.77
2019-02-15T04:28:21.774Z,13.83
2019-02-15T04:30:53.416Z,16.67
2019-02-15T04:33:25.021Z,18.43
2019-02-15T04:35:57.704Z,17.40
2019-02-15T04:38:29.279Z,19.27
2019-02-15T04:41:00.818Z,17.43
2019-02-15T04:43:32.347Z,18.33
2019-02-15T04:46:03.869Z,19.47
2019-02-15T04:48:35.402Z,16.87
2019-02-15T04:51:06.927Z,16.63
2019-02-15T04:53:38.536Z,19.23
2019-02-15T04:56:10.224Z,19.20
2019-02-15T04:58:41.767Z,19.67
2019-02-15T05:01:13.428Z,16.87
2019-02-15T05:03:45.031Z,19.27
2019-02-15T05:06:16.624Z,18.40
2019-02-15T05:08:48.137Z,17.07
2019-02-15T05:11:19.738Z,18.20
2019-02-15T05:13:51.270Z,17.80
2019-02-15T05:16:22.945Z,16.70
2019-02-15T05:18:54.553Z,17.50
2019-02-15T05:21:26.101Z,18.73
2019-02-15T05:23:57.612Z,16.83
2019-02-15T05:26:29.255Z,15.87
2019-02-15T05:29:00.924Z,19.93
2019-02-15T05:31:32.456Z,17.53
2019-02-15T05:34:04.073Z,20.47
2019-02-15T05:36:35.594Z,17.47
2019-02-15T05:39:08.677Z,16.37
2019-02-15T05:41:40.434Z,16.43
2019-02-15T05:44:12.753Z,17.73
2019-02-15T05:46:45.352Z,18.20
2019-02-15T05:49:16.867Z,15.37
2019-02-15T05:51:48.450Z,15.10
2019-02-15T05:54:20.086Z,14.60
2019-02-15T05:56:51.726Z,15.47
2019-02-15T05:59:23.255Z,19.13
2019-02-15T06:01:56.583Z,17.60
2019-02-15T06:04:28.256Z,15.57
2019-02-15T06:06:59.833Z,17.63
2019-02-15T06:09:31.354Z,16.83
2019-02-15T06:12:02.876Z,16.03
2019-02-15T06:14:34.488Z,16.03
2019-02-15T06:17:07.175Z,17.40
2019-02-15T06:19:38.861Z,17.93
2019-02-15T06:22:10.695Z,17.13
2019-02-15T06:24:42.606Z,18.20
2019-02-15T06:27:14.253Z,14.80
2019-02-15T06:29:45.872Z,18.00
2019-02-15T06:32:17.701Z,17.93
2019-02-15T06:34:49.296Z,18.13
2019-02-15T06:37:20.879Z,17.73
2019-02-15T06:39:52.571Z,18.33
2019-02-15T06:42:24.232Z,18.53
2019-02-15T06:44:56.424Z,17.57
2019-02-15T06:47:28.106Z,17.90
2019-02-15T06:49:59.736Z,17.93
2019-02-15T06:52:31.313Z,17.83
2019-02-15T06:55:03.585Z,19.87
2019-02-15T06:57:35.268Z,18.60
2019-02-15T07:00:29.810Z,18.03
2019-02-15T07:03:07.690Z,18.40
2019-02-15T07:05:39.228Z,21.77
2019-02-15T07:08:11.060Z,19.10
2019-02-15T07:10:42.634Z,17.33
2019-02-15T07:13:14.812Z,21.10
2019-02-15T07:15:46.416Z,20.83
2019-02-15T07:18:17.951Z,19.87
2019-02-15T07:20:49.490Z,19.63
2019-02-15T07:23:21.031Z,19.93
2019-02-15T07:25:52.634Z,17.10
2019-02-15T07:28:24.705Z,16.33
2019-02-15T07:30:56.299Z,17.03
2019-02-15T07:33:27.842Z,17.63
2019-02-15T07:35:59.352Z,18.07
2019-02-15T07:38:30.879Z,16.73
2019-02-15T07:41:02.424Z,16.20
2019-02-15T07:43:34.543Z,16.17
2019-02-15T07:46:06.096Z,15.87
2019-02-15T07:48:37.600Z,22.13
2019-02-15T07:51:10.035Z,22.83
2019-02-15T07:53:41.740Z,22.67
2019-02-15T07:56:13.435Z,21.00
2019-02-15T07:58:44.978Z,23.33
2019-02-15T08:01:16.575Z,20.00
2019-02-15T08:03:48.100Z,20.27
2019-02-15T08:06:19.645Z,25.37
2019-02-15T08:08:51.180Z,25.17
2019-02-15T08:11:23.271Z,25.07
2019-02-15T08:13:54.872Z,27.83
2019-02-15T08:16:26.504Z,28.83
2019-02-15T08:18:59.127Z,25.60
2019-02-15T08:21:31.898Z,24.33
2019-02-15T08:24:03.478Z,24.53
2019-02-15T08:26:35.018Z,19.53
2019-02-15T08:29:06.543Z,17.07
2019-02-15T08:31:38.121Z,21.33
2019-02-15T08:34:09.741Z,20.73
2019-02-15T08:36:41.314Z,14.80
2019-02-15T08:39:12.870Z,22.27
2019-02-15T08:42:00.221Z,15.80
2019-02-15T08:44:17.703Z,16.43
2019-02-15T08:46:49.279Z,22.70
2019-02-15T08:49:20.833Z,21.43
2019-02-15T08:51:52.371Z,17.50
2019-02-15T08:54:23.917Z,18.13
2019-02-15T08:56:55.531Z,19.80
2019-02-15T08:59:27.058Z,24.07
2019-02-15T09:02:03.137Z,23.27
2019-02-15T09:04:34.654Z,29.47
2019-02-15T09:07:06.285Z,22.63
2019-02-15T09:09:38.043Z,24.13
2019-02-15T09:12:09.658Z,20.40
2019-02-15T09:14:41.260Z,24.27
2019-02-15T09:17:12.904Z,20.17
2019-02-15T09:19:44.444Z,20.73
2019-02-15T09:22:16.026Z,24.23
2019-02-15T09:24:47.629Z,21.53
2019-02-15T09:27:20.871Z,18.27
2019-02-15T09:29:52.576Z,20.77
2019-02-15T09:32:24.093Z,19.60
2019-02-15T09:34:55.905Z,12.57
2019-02-15T09:37:28.333Z,14.00
2019-02-15T09:39:59.864Z,15.30
2019-02-15T09:42:31.397Z,15.20
2019-02-15T09:45:02.992Z,12.03
2019-02-15T09:47:34.616Z,19.63
2019-02-15T09:50:10.344Z,12.17
2019-02-15T09:52:44.558Z,17.07
2019-02-15T09:55:16.165Z,16.93
2019-02-15T09:57:47.712Z,20.67
2019-02-15T10:00:19.272Z,14.97
2019-02-15T10:02:50.859Z,15.80
2019-02-15T10:05:22.375Z,14.83
2019-02-15T10:07:54.089Z,17.67
2019-02-15T10:10:25.889Z,16.57
2019-02-15T10:12:57.490Z,17.00
2019-02-15T10:15:29.125Z,16.57
2019-02-15T10:18:00.643Z,15.70
2019-02-15T10:20:32.641Z,16.43
2019-02-15T10:23:04.189Z,16.40
2019-02-15T10:25:35.803Z,17.63
2019-02-15T10:28:07.352Z,15.33
2019-02-15T10:30:39.022Z,20.30
2019-02-15T10:33:10.689Z,16.77
2019-02-15T10:35:42.243Z,19.60
2019-02-15T10:38:13.787Z,12.50
2019-02-15T10:40:45.324Z,10.93
2019-02-15T10:43:16.867Z,18.60
2019-02-15T10:45:48.399Z,18.07
2019-02-15T10:48:19.929Z,20.70
2019-02-15T10:50:51.471Z,13.07
2019-02-15T10:53:22.999Z,13.37
2019-02-15T10:55:54.598Z,14.13
2019-02-15T10:58:26.523Z,17.20
2019-02-15T11:00:58.091Z,18.20
2019-02-15T11:03:30.678Z,18.70
2019-02-15T11:06:02.267Z,13.57
2019-02-15T11:08:33.774Z,14.63
2019-02-15T11:11:05.463Z,13.57
2019-02-15T11:13:36.982Z,14.37
2019-02-15T11:16:08.518Z,11.40
2019-02-15T11:18:40.190Z,11.60
2019-02-15T11:21:11.734Z,15.03
2019-02-15T11:23:43.271Z,17.20
2019-02-15T11:26:14.850Z,12.83
2019-02-15T11:28:46.369Z,18.33
2019-02-15T11:31:17.923Z,17.13
2019-02-15T11:33:49.456Z,17.77
2019-02-15T11:36:22.326Z,18.43
2019-02-15T11:38:53.939Z,14.53
2019-02-15T11:41:25.493Z,14.27
2019-02-15T11:43:57.090Z,13.30
2019-02-15T11:46:28.681Z,12.70
2019-02-15T11:49:00.209Z,9.60
2019-02-15T11:51:31.846Z,14.57
2019-02-15T11:54:03.374Z,12.73
2019-02-15T11:56:34.972Z,11.53
2019-02-15T11:59:06.614Z,17.77
2019-02-15T12:01:38.295Z,21.57
2019-02-15T12:04:09.890Z,13.53
2019-02-15T12:06:41.455Z,13.73
2019-02-15T12:09:13.059Z,19.30
2019-02-15T12:11:44.593Z,14.73
2019-02-15T12:14:16.184Z,13.43
2019-02-15T12:16:47.808Z,11.37
2019-02-15T12:19:19.373Z,11.07
2019-02-15T12:21:51.277Z,11.37
2019-02-15T12:24:22.965Z,13.40
2019-02-15T12:26:54.506Z,16.27
2019-02-15T12:29:26.118Z,15.43
2019-02-15T12:31:57.665Z,16.57
2019-02-15T12:34:29.246Z,11.67
2019-02-15T12:37:00.785Z,14.97
2019-02-15T12:39:33.182Z,17.67
2019-02-15T12:42:04.831Z,12.97
2019-02-15T12:44:36.464Z,12.33
2019-02-15T12:47:14.860Z,12.77
2019-02-15T12:49:41.235Z,14.67
2019-02-15T12:52:12.869Z,16.43
2019-02-15T12:54:44.428Z,19.43
2019-02-15T12:57:16.080Z,19.20
2019-02-15T12:59:47.657Z,15.37
2019-02-15T13:02:19.350Z,14.67
2019-02-15T13:04:51.708Z,12.40
2019-02-15T13:07:24.811Z,14.33
2019-02-15T13:09:56.507Z,12.83
2019-02-15T13:12:28.050Z,11.47
2019-02-15T13:15:00.196Z,12.43
2019-02-15T13:17:31.964Z,11.50
2019-02-15T13:20:04.003Z,13.60
2019-02-15T13:22:35.553Z,12.80
2019-02-15T13:25:08.358Z,12.50
2019-02-15T13:27:40.036Z,13.33
2019-02-15T13:30:14.855Z,11.50
2019-02-15T13:32:46.471Z,16.10
2019-02-15T13:35:23.890Z,17.47
2019-02-15T13:37:55.477Z,16.53
2019-02-15T13:40:27.049Z,11.40
2019-02-15T13:42:58.751Z,13.67
2019-02-15T13:45:30.286Z,14.30
2019-02-15T13:48:01.971Z,10.60
2019-02-15T13:50:33.521Z,15.43
2019-02-15T13:53:05.235Z,16.23
2019-02-15T13:55:36.827Z,14.57
2019-02-15T13:58:08.516Z,16.97
2019-02-15T14:00:40.137Z,19.33
2019-02-15T14:03:11.806Z,10.77
2019-02-15T14:05:43.463Z,9.50
2019-02-15T14:08:16.491Z,12.87
2019-02-15T14:10:48.302Z,10.80
2019-02-15T14:13:19.847Z,13.53
2019-02-15T14:15:51.443Z,9.13
2019-02-15T14:18:23.046Z,14.23
2019-02-15T14:20:54.592Z,17.03
2019-02-15T14:23:26.173Z,18.80
2019-02-15T14:25:57.726Z,14.33
2019-02-15T14:28:29.287Z,20.80
2019-02-15T14:31:01.593Z,15.47
2019-02-15T14:33:33.166Z,14.00
2019-02-15T14:36:04.742Z,11.50
2019-02-15T14:38:36.338Z,11.40
2019-02-15T14:41:07.984Z,14.33
2019-02-15T14:43:39.515Z,15.73
2019-02-15T14:46:11.133Z,13.93
2019-02-15T14:48:42.824Z,22.07
2019-02-15T14:51:14.443Z,12.60
2019-02-15T14:53:46.005Z,12.87
2019-02-15T14:56:17.664Z,14.37
2019-02-15T14:58:49.318Z,14.83
2019-02-15T15:01:21.077Z,18.10
2019-02-15T15:03:52.711Z,23.07
2019-02-15T15:06:24.406Z,24.33
2019-02-15T15:08:55.961Z,21.23
2019-02-15T15:11:27.575Z,20.33
2019-02-15T15:13:59.245Z,22.23
2019-02-15T15:16:30.889Z,17.97
2019-02-15T15:19:02.487Z,14.93
2019-02-15T15:21:35.017Z,18.17
2019-02-15T15:24:06.655Z,17.20
2019-02-15T15:26:38.327Z,21.57
2019-02-15T15:29:09.934Z,10.73
2019-02-15T15:31:41.682Z,12.93
2019-02-15T15:34:13.283Z,13.00
2019-02-15T15:36:44.870Z,12.93
2019-02-15T15:39:16.553Z,17.37
2019-02-15T15:41:48.258Z,12.70
2019-02-15T15:44:19.927Z,13.27
2019-02-15T15:46:51.457Z,10.00
2019-02-15T15:49:22.974Z,15.47
2019-02-15T15:51:54.493Z,19.03
2019-02-15T15:54:26.589Z,13.93
2019-02-15T15:56:58.099Z,15.70
2019-02-15T15:59:29.855Z,20.07
2019-02-15T16:02:01.590Z,19.43
2019-02-15T16:04:34.830Z,17.10
2019-02-15T16:07:06.484Z,21.70
2019-02-15T16:09:38.010Z,18.43
2019-02-15T16:12:09.540Z,15.97
2019-02-15T16:14:41.216Z,13.03
2019-02-15T16:17:12.816Z,18.27
2019-02-15T16:19:49.224Z,19.33
2019-02-15T16:22:17.666Z,20.60
2019-02-15T16:24:49.347Z,19.27
2019-02-15T16:27:20.880Z,19.43
2019-02-15T16:29:52.480Z,20.10
2019-02-15T16:32:24.175Z,18.40
2019-02-15T16:34:55.815Z,22.17
2019-02-15T16:37:27.412Z,19.80
2019-02-15T16:39:59.070Z,25.23
2019-02-15T16:42:30.752Z,23.20
2019-02-15T16:45:02.353Z,14.80
2019-02-15T16:47:34.935Z,22.93
2019-02-15T16:50:08.462Z,20.40
2019-02-15T16:52:40.068Z,16.67
2019-02-15T16:55:13.287Z,24.90
2019-02-15T16:57:46.127Z,11.80
2019-02-15T17:00:17.706Z,16.47
2019-02-15T17:02:49.297Z,18.97
2019-02-15T17:05:38.768Z,13.73
2019-02-15T17:08:10.373Z,15.87
2019-02-15T17:10:41.907Z,22.43
2019-02-15T17:13:29.274Z,17.73
2019-02-15T17:16:01.812Z,16.07
2019-02-15T17:18:33.416Z,23.37
2019-02-15T17:21:05.153Z,22.70
2019-02-15T17:23:37.007Z,20.70
2019-02-15T17:26:08.593Z,18.37
2019-02-15T17:28:40.151Z,17.20
2019-02-15T17:31:11.751Z,21.23
2019-02-15T17:33:43.543Z,20.30
2019-02-15T17:36:15.078Z,23.47
2019-02-15T17:38:47.147Z,16.87
2019-02-15T17:41:18.876Z,19.90
2019-02-15T17:43:50.425Z,26.00
2019-02-15T17:46:22.097Z,29.00
2019-02-15T17:49:00.572Z,29.33
2019-02-15T17:51:27.109Z,15.93
2019-02-15T17:53:58.910Z,21.37
2019-02-15T17:56:30.432Z,24.67
2019-02-15T17:59:01.954Z,20.47
2019-02-15T18:01:34.706Z,27.07
2019-02-15T18:04:06.284Z,25.10
2019-02-15T18:06:37.794Z,22.70
2019-02-15T18:09:09.406Z,21.80
2019-02-15T18:11:41.012Z,20.30
2019-02-15T18:14:12.516Z,21.87
2019-02-15T18:16:44.039Z,25.70
2019-02-15T18:19:15.710Z,22.67
2019-02-15T18:21:47.487Z,27.03
2019-02-15T18:24:19.073Z,23.43
2019-02-15T18:26:50.656Z,22.03
2019-02-15T18:29:22.282Z,18.90
2019-02-15T18:31:53.940Z,20.43
2019-02-15T18:34:25.567Z,19.67
2019-02-15T18:36:57.162Z,22.87
2019-02-15T18:39:29.241Z,17.20
2019-02-15T18:42:00.868Z,16.90
2019-02-15T18:44:32.548Z,25.63
2019-02-15T18:47:04.542Z,16.87
2019-02-15T18:49:36.141Z,18.80
2019-02-15T18:52:07.699Z,25.60
2019-02-15T18:54:39.317Z,20.70
2019-02-15T18:57:11.268Z,22.77
2019-02-15T18:59:42.852Z,19.20
2019-02-15T19:02:14.390Z,22.83
2019-02-15T19:04:45.937Z,22.07
2019-02-15T19:07:18.714Z,17.17
2019-02-15T19:09:50.775Z,19.07
2019-02-15T19:12:22.668Z,20.70
2019-02-15T19:14:54.282Z,22.07
2019-02-15T19:17:25.823Z,18.00
2019-02-15T19:19:57.348Z,15.90
2019-02-15T19:22:29.027Z,18.20
2019-02-15T19:25:00.630Z,15.23
2019-02-15T19:27:32.192Z,21.93
2019-02-15T19:30:07.025Z,15.17
2019-02-15T19:32:38.779Z,15.77
2019-02-15T19:35:11.108Z,16.73
2019-02-15T19:37:43.855Z,14.10
2019-02-15T19:40:19.099Z,14.63
2019-02-15T19:42:54.886Z,13.97
2019-02-15T19:45:26.514Z,14.50
2019-02-15T19:47:58.504Z,15.47
2019-02-15T19:50:30.202Z,14.20
2019-02-15T19:53:01.823Z,14.03
2019-02-15T19:55:33.501Z,14.67
2019-02-15T19:58:05.106Z,14.77
2019-02-15T20:00:36.633Z,13.37
2019-02-15T20:03:08.315Z,13.17
2019-02-15T20:05:40.033Z,14.50
2019-02-15T20:08:11.651Z,12.80
2019-02-15T20:10:43.306Z,16.13
2019-02-15T20:13:15.044Z,16.40
2019-02-15T20:15:46.727Z,15.53
2019-02-15T20:18:18.280Z,16.17
2019-02-15T20:20:50.034Z,16.63
2019-02-15T20:23:21.634Z,19.57
2019-02-15T20:25:53.761Z,23.43
2019-02-15T20:28:25.489Z,22.70
2019-02-15T20:30:57.034Z,19.33
2019-02-15T20:33:28.709Z,20.90
2019-02-15T20:36:00.272Z,20.13
2019-02-15T20:38:31.867Z,19.37
2019-02-15T20:41:03.955Z,22.87
2019-02-15T20:43:35.563Z,18.53
2019-02-15T20:46:07.087Z,20.83
2019-02-15T20:48:38.605Z,18.97
2019-02-15T20:51:10.113Z,22.73
2019-02-15T20:53:41.666Z,21.53
2019-02-15T20:56:13.191Z,24.60
2019-02-15T20:58:45.490Z,21.00
2019-02-15T21:01:17.021Z,20.33
2019-02-15T21:03:48.605Z,19.03
2019-02-15T21:06:20.227Z,21.23
2019-02-15T21:08:51.853Z,26.80
2019-02-15T21:11:23.366Z,24.37
2019-02-15T21:13:55.492Z,24.60
2019-02-15T21:16:27.087Z,19.93
2019-02-15T21:18:58.615Z,18.70
2019-02-15T21:21:30.194Z,17.37
2019-02-15T21:24:01.802Z,19.10
2019-02-15T21:26:33.372Z,19.83
2019-02-15T21:29:04.886Z,20.67
2019-02-15T21:31:36.750Z,15.80
2019-02-15T21:34:08.457Z,15.07
2019-02-15T21:36:39.979Z,20.37
2019-02-15T21:39:11.583Z,18.57
2019-02-15T21:41:43.213Z,24.03
2019-02-15T21:44:14.721Z,32.80
2019-02-15T21:46:46.258Z,23.40
2019-02-15T21:49:17.763Z,23.33
2019-02-15T21:51:49.282Z,24.10
2019-02-15T21:54:20.870Z,23.10
2019-02-15T21:56:52.516Z,26.97
2019-02-15T21:59:24.084Z,25.93
2019-02-15T22:01:55.616Z,29.43
2019-02-15T22:04:27.263Z,23.87
2019-02-15T22:06:58.906Z,25.73
2019-02-15T22:09:30.443Z,29.63
2019-02-15T22:12:01.967Z,29.80
2019-02-15T22:14:33.541Z,22.67
2019-02-15T22:17:05.228Z,23.90
2019-02-15T22:19:36.746Z,22.27
2019-02-15T22:22:08.346Z,22.27
2019-02-15T22:24:39.899Z,22.17
2019-02-15T22:27:11.443Z,23.97
2019-02-15T22:29:43.116Z,25.90
2019-02-15T22:32:14.633Z,24.13
2019-02-15T22:34:46.158Z,23.03
2019-02-15T22:37:17.833Z,20.57
2019-02-15T22:39:49.377Z,23.17
2019-02-15T22:42:21.604Z,19.93
2019-02-15T22:44:53.202Z,18.80
2019-02-15T22:47:24.752Z,20.00
2019-02-15T22:49:56.295Z,18.33
2019-02-15T22:52:27.888Z,19.90
2019-02-15T22:54:59.494Z,23.27
2019-02-15T22:57:31.082Z,20.37
2019-02-15T23:00:04.125Z,18.33
2019-02-15T23:02:37.452Z,23.80
2019-02-15T23:05:09.065Z,20.20
2019-02-15T23:07:40.675Z,18.23
2019-02-15T23:10:12.539Z,20.63
2019-02-15T23:12:44.137Z,20.00
2019-02-15T23:15:15.649Z,20.83
2019-02-15T23:17:47.201Z,24.13
2019-02-15T23:20:18.704Z,24.37
2019-02-15T23:22:50.249Z,27.63
2019-02-15T23:25:21.856Z,24.90
2019-02-15T23:27:53.382Z,28.87
2019-02-15T23:30:24.990Z,26.43
2019-02-15T23:32:56.672Z,32.57
2019-02-15T23:35:28.319Z,26.77
2019-02-15T23:37:59.885Z,32.33
2019-02-15T23:40:31.422Z,27.70
2019-02-15T23:43:03.455Z,25.80
2019-02-15T23:45:34.977Z,30.37
2019-02-15T23:48:06.629Z,26.63
2019-02-15T23:50:38.140Z,26.50
2019-02-15T23:53:09.735Z,25.23
2019-02-15T23:55:41.280Z,26.23
2019-02-15T23:58:12.875Z,25.07
